createdAt,value
2018-04-15T00:00:41.858Z,0.00
2018-04-15T00:01:41.952Z,0.00
2018-04-15T00:02:41.953Z,0.00
2018-04-15T00:03:42.001Z,0.00
2018-04-15T00:04:42.047Z,0.00
2018-04-15T00:05:42.097Z,0.00
2018-04-15T00:06:42.172Z,0.00
2018-04-15T00:07:42.188Z,0.00
2018-04-15T00:08:42.235Z,0.00
2018-04-15T00:09:42.283Z,0.00
2018-04-15T00:10:42.330Z,0.00
2018-04-15T00:11:42.400Z,0.00
2018-04-15T00:12:42.422Z,0.00
2018-04-15T00:13:42.472Z,0.00
2018-04-15T00:14:42.540Z,0.00
2018-04-15T00:15:42.563Z,0.00
2018-04-15T00:16:42.611Z,0.00
2018-04-15T00:17:42.655Z,0.00
2018-04-15T00:18:42.704Z,0.00
2018-04-15T00:19:42.775Z,0.00
2018-04-15T00:20:42.795Z,0.00
2018-04-15T00:21:42.844Z,0.00
2018-04-15T00:22:42.912Z,0.00
2018-04-15T00:23:42.937Z,0.00
2018-04-15T00:24:42.985Z,0.00
2018-04-15T00:25:43.031Z,0.00
2018-04-15T00:26:43.079Z,0.00
2018-04-15T00:27:43.159Z,0.00
2018-04-15T00:28:43.170Z,0.00
2018-04-15T00:29:43.221Z,0.00
2018-04-15T00:30:43.266Z,0.00
2018-04-15T00:31:43.313Z,0.00
2018-04-15T00:32:43.385Z,0.00
2018-04-15T00:33:43.409Z,0.00
2018-04-15T00:34:43.454Z,0.00
2018-04-15T00:35:43.500Z,0.00
2018-04-15T00:36:43.568Z,0.00
2018-04-15T00:37:43.629Z,0.00
2018-04-15T00:38:43.641Z,0.00
2018-04-15T00:39:43.686Z,0.00
2018-04-15T00:40:43.731Z,0.00
2018-04-15T00:41:43.778Z,0.00
2018-04-15T00:42:43.851Z,0.00
2018-04-15T00:44:19.411Z,0.00
2018-04-15T00:44:43.922Z,0.00
2018-04-15T00:45:43.965Z,0.00
2018-04-15T00:46:44.015Z,0.00
2018-04-15T00:47:44.057Z,0.00
2018-04-15T00:48:44.130Z,0.00
2018-04-15T00:49:44.152Z,0.00
2018-04-15T00:50:44.197Z,0.00
2018-04-15T00:51:44.243Z,0.00
2018-04-15T00:52:44.290Z,0.00
2018-04-15T00:53:44.373Z,0.00
2018-04-15T00:54:44.385Z,0.00
2018-04-15T00:55:44.430Z,0.00
2018-04-15T00:56:44.476Z,0.00
2018-04-15T00:57:44.522Z,0.00
2018-04-15T00:58:44.597Z,0.00
2018-04-15T00:59:44.625Z,0.00
2018-04-15T01:00:44.688Z,0.00
2018-04-15T01:01:44.710Z,0.00
2018-04-15T01:02:44.759Z,0.00
2018-04-15T01:03:44.802Z,0.00
2018-04-15T01:04:44.876Z,0.00
2018-04-15T01:05:44.898Z,0.00
2018-04-15T01:06:44.943Z,0.00
2018-04-15T01:07:44.991Z,0.00
2018-04-15T01:08:45.036Z,0.00
2018-04-15T01:09:45.103Z,0.00
2018-04-15T01:10:45.154Z,0.00
2018-04-15T01:11:45.173Z,0.00
2018-04-15T01:12:45.221Z,0.00
2018-04-15T01:13:45.265Z,0.00
2018-04-15T01:14:45.314Z,0.00
2018-04-15T01:15:45.382Z,0.00
2018-04-15T01:16:45.406Z,0.00
2018-04-15T01:17:45.451Z,0.00
2018-04-15T01:18:45.501Z,0.00
2018-04-15T01:19:45.545Z,0.00
2018-04-15T01:20:45.617Z,0.00
2018-04-15T01:21:45.661Z,0.00
2018-04-15T01:22:45.682Z,0.00
2018-04-15T01:23:45.728Z,0.00
2018-04-15T01:24:45.773Z,0.00
2018-04-15T01:25:45.821Z,0.00
2018-04-15T01:26:45.888Z,0.00
2018-04-15T01:27:45.914Z,0.00
2018-04-15T01:28:45.960Z,0.00
2018-04-15T01:29:46.003Z,0.00
2018-04-15T01:30:46.086Z,0.00
2018-04-15T01:31:46.099Z,0.00
2018-04-15T01:32:46.143Z,0.00
2018-04-15T01:33:46.192Z,0.00
2018-04-15T01:34:46.235Z,0.00
2018-04-15T01:35:46.307Z,0.00
2018-04-15T01:36:46.330Z,0.00
2018-04-15T01:37:46.401Z,0.00
2018-04-15T01:38:46.427Z,0.00
2018-04-15T01:39:46.468Z,0.00
2018-04-15T01:40:46.513Z,0.00
2018-04-15T01:41:46.559Z,0.00
2018-04-15T01:42:46.642Z,0.00
2018-04-15T01:43:46.652Z,0.00
2018-04-15T01:44:46.696Z,0.00
2018-04-15T01:45:46.744Z,0.00
2018-04-15T01:46:46.793Z,0.00
2018-04-15T01:47:46.873Z,0.00
2018-04-15T01:48:46.881Z,0.00
2018-04-15T01:49:46.931Z,0.00
2018-04-15T01:50:46.976Z,0.00
2018-04-15T01:51:47.022Z,0.00
2018-04-15T01:52:47.102Z,0.00
2018-04-15T01:53:47.126Z,0.00
2018-04-15T01:54:47.161Z,0.00
2018-04-15T01:55:47.204Z,0.00
2018-04-15T01:56:47.250Z,0.00
2018-04-15T01:57:47.321Z,0.00
2018-04-15T01:58:47.345Z,0.00
2018-04-15T01:59:47.413Z,0.00
2018-04-15T02:00:47.435Z,0.00
2018-04-15T02:01:47.484Z,0.00
2018-04-15T02:02:47.530Z,0.00
2018-04-15T02:03:47.574Z,0.00
2018-04-15T02:04:47.652Z,0.00
2018-04-15T02:05:47.672Z,0.00
2018-04-15T02:06:47.716Z,0.00
2018-04-15T02:07:47.759Z,0.00
2018-04-15T02:08:47.803Z,0.00
2018-04-15T02:09:47.892Z,0.00
2018-04-15T02:10:47.902Z,0.00
2018-04-15T02:11:47.944Z,0.00
2018-04-15T02:12:47.990Z,0.00
2018-04-15T02:13:48.036Z,0.00
2018-04-15T02:14:48.118Z,0.00
2018-04-15T02:15:48.131Z,0.00
2018-04-15T02:16:48.176Z,0.00
2018-04-15T02:17:48.224Z,0.00
2018-04-15T02:18:48.267Z,0.00
2018-04-15T02:19:48.422Z,0.00
2018-04-15T02:20:48.359Z,0.00
2018-04-15T02:21:48.405Z,0.00
2018-04-15T02:22:48.455Z,0.00
2018-04-15T02:23:48.514Z,0.00
2018-04-15T02:24:48.574Z,0.00
2018-04-15T02:25:48.593Z,0.00
2018-04-15T02:26:48.639Z,0.00
2018-04-15T02:27:48.681Z,0.00
2018-04-15T02:28:48.727Z,0.00
2018-04-15T02:29:48.834Z,0.00
2018-04-15T02:30:48.820Z,0.00
2018-04-15T02:31:48.892Z,0.00
2018-04-15T02:32:48.910Z,0.00
2018-04-15T02:33:48.959Z,0.00
2018-04-15T02:34:49.004Z,0.00
2018-04-15T02:35:49.074Z,0.00
2018-04-15T02:36:49.100Z,0.00
2018-04-15T02:37:49.142Z,0.00
2018-04-15T02:38:49.188Z,0.00
2018-04-15T02:39:49.233Z,0.00
2018-04-15T02:40:49.302Z,0.00
2018-04-15T02:41:49.355Z,0.00
2018-04-15T02:42:49.372Z,0.00
2018-04-15T02:43:49.417Z,0.00
2018-04-15T02:44:49.463Z,0.00
2018-04-15T02:45:49.532Z,0.00
2018-04-15T02:46:49.556Z,0.00
2018-04-15T02:47:49.600Z,0.00
2018-04-15T02:48:49.644Z,0.00
2018-04-15T02:49:49.724Z,0.00
2018-04-15T02:50:49.739Z,0.00
2018-04-15T02:51:49.783Z,0.00
2018-04-15T02:52:49.828Z,0.00
2018-04-15T02:53:49.875Z,0.00
2018-04-15T02:54:49.952Z,0.00
2018-04-15T02:55:49.982Z,0.00
2018-04-15T02:56:50.016Z,0.00
2018-04-15T02:57:50.056Z,0.00
2018-04-15T02:58:50.116Z,0.00
2018-04-15T02:59:50.186Z,0.00
2018-04-15T03:00:50.193Z,0.00
2018-04-15T03:01:50.240Z,0.00
2018-04-15T03:02:50.288Z,0.00
2018-04-15T03:03:50.337Z,0.00
2018-04-15T03:04:50.401Z,0.00
2018-04-15T03:05:50.428Z,0.00
2018-04-15T03:06:50.495Z,0.00
2018-04-15T03:07:50.513Z,0.00
2018-04-15T03:08:50.558Z,0.00
2018-04-15T03:09:50.606Z,0.00
2018-04-15T03:10:50.678Z,0.00
2018-04-15T03:11:50.701Z,0.00
2018-04-15T03:12:50.743Z,0.00
2018-04-15T03:13:50.789Z,0.00
2018-04-15T03:14:50.835Z,0.00
2018-04-15T03:15:50.905Z,0.00
2018-04-15T03:16:50.923Z,0.00
2018-04-15T03:17:50.970Z,0.00
2018-04-15T03:18:51.014Z,0.00
2018-04-15T03:19:51.062Z,0.00
2018-04-15T03:20:51.145Z,0.00
2018-04-15T03:21:51.150Z,0.00
2018-04-15T03:22:51.198Z,0.00
2018-04-15T03:23:51.243Z,0.00
2018-04-15T03:24:51.298Z,0.00
2018-04-15T03:25:51.356Z,0.00
2018-04-15T03:26:51.379Z,0.00
2018-04-15T03:27:51.429Z,0.00
2018-04-15T03:28:52.083Z,0.00
2018-04-15T03:29:51.535Z,0.00
2018-04-15T03:30:51.585Z,0.00
2018-04-15T03:31:51.609Z,0.00
2018-04-15T03:32:51.653Z,0.00
2018-04-15T03:33:51.700Z,0.00
2018-04-15T03:34:51.747Z,0.00
2018-04-15T03:35:51.813Z,0.00
2018-04-15T03:36:51.857Z,0.00
2018-04-15T03:37:51.884Z,0.00
2018-04-15T03:38:51.926Z,0.00
2018-04-15T03:39:51.971Z,0.00
2018-04-15T03:40:52.018Z,0.00
2018-04-15T03:41:52.090Z,0.00
2018-04-15T03:42:52.106Z,0.00
2018-04-15T03:43:52.171Z,0.00
2018-04-15T03:44:52.202Z,0.00
2018-04-15T03:45:52.244Z,0.00
2018-04-15T03:46:52.321Z,0.00
2018-04-15T03:47:52.334Z,0.00
2018-04-15T03:48:52.386Z,0.00
2018-04-15T03:49:52.424Z,0.00
2018-04-15T03:50:52.472Z,0.00
2018-04-15T03:51:52.560Z,0.00
2018-04-15T03:52:52.563Z,0.00
2018-04-15T03:53:52.609Z,0.00
2018-04-15T03:54:52.659Z,0.00
2018-04-15T03:55:52.698Z,0.00
2018-04-15T03:56:52.768Z,0.00
2018-04-15T03:57:52.823Z,0.00
2018-04-15T03:58:52.835Z,0.00
2018-04-15T03:59:52.884Z,0.00
2018-04-15T04:00:52.925Z,0.00
2018-04-15T04:01:52.970Z,0.00
2018-04-15T04:02:53.041Z,0.00
2018-04-15T04:03:53.061Z,0.00
2018-04-15T04:04:53.156Z,0.00
2018-04-15T04:05:53.151Z,0.00
2018-04-15T04:06:53.202Z,0.00
2018-04-15T04:07:53.267Z,0.00
2018-04-15T04:08:54.085Z,0.00
2018-04-15T04:09:53.332Z,0.00
2018-04-15T04:10:53.881Z,0.00
2018-04-15T04:11:53.423Z,0.00
2018-04-15T04:12:53.506Z,0.00
2018-04-15T04:13:53.513Z,0.00
2018-04-15T04:14:53.565Z,0.00
2018-04-15T04:15:53.607Z,0.00
2018-04-15T04:16:54.381Z,0.00
2018-04-15T04:17:53.734Z,0.00
2018-04-15T04:18:53.741Z,0.00
2018-04-15T04:19:53.785Z,0.00
2018-04-15T04:20:53.830Z,0.00
2018-04-15T04:21:53.881Z,0.00
2018-04-15T04:22:53.949Z,0.00
2018-04-15T04:23:53.993Z,0.00
2018-04-15T04:24:54.012Z,0.00
2018-04-15T04:25:54.061Z,0.00
2018-04-15T04:26:54.103Z,0.00
2018-04-15T04:27:54.181Z,0.00
2018-04-15T04:28:54.216Z,0.00
2018-04-15T04:29:54.241Z,5.63
2018-04-15T04:30:54.286Z,5.63
2018-04-15T04:31:54.331Z,5.63
2018-04-15T04:32:54.376Z,5.63
2018-04-15T04:33:54.455Z,5.63
2018-04-15T04:34:54.465Z,5.63
2018-04-15T04:35:54.511Z,5.63
2018-04-15T04:36:54.556Z,5.63
2018-04-15T04:37:54.606Z,11.25
2018-04-15T04:38:54.685Z,11.25
2018-04-15T04:39:54.692Z,11.25
2018-04-15T04:40:54.737Z,11.25
2018-04-15T04:41:54.785Z,16.88
2018-04-15T04:42:54.830Z,16.88
2018-04-15T04:43:54.906Z,16.88
2018-04-15T04:44:54.922Z,16.88
2018-04-15T04:45:54.966Z,22.50
2018-04-15T04:46:55.011Z,22.50
2018-04-15T04:47:55.054Z,22.50
2018-04-15T04:48:55.123Z,28.13
2018-04-15T04:49:55.181Z,28.13
2018-04-15T04:50:55.195Z,28.13
2018-04-15T04:51:55.238Z,33.75
2018-04-15T04:52:55.281Z,33.75
2018-04-15T04:53:55.326Z,33.75
2018-04-15T04:54:55.412Z,39.38
2018-04-15T04:55:55.416Z,39.38
2018-04-15T04:56:55.464Z,39.38
2018-04-15T04:57:55.506Z,45.00
2018-04-15T04:58:55.556Z,45.00
2018-04-15T04:59:55.629Z,45.00
2018-04-15T05:00:55.643Z,50.63
2018-04-15T05:01:55.691Z,50.63
2018-04-15T05:02:55.733Z,50.63
2018-04-15T05:03:55.791Z,56.25
2018-04-15T05:04:55.851Z,56.25
2018-04-15T05:05:55.895Z,56.25
2018-04-15T05:06:55.919Z,61.88
2018-04-15T05:07:55.961Z,61.88
2018-04-15T05:08:56.008Z,61.88
2018-04-15T05:09:56.054Z,67.50
2018-04-15T05:10:56.131Z,67.50
2018-04-15T05:11:56.146Z,67.50
2018-04-15T05:12:56.189Z,73.13
2018-04-15T05:13:56.231Z,73.13
2018-04-15T05:14:56.277Z,73.13
2018-04-15T05:15:56.358Z,78.75
2018-04-15T05:16:56.370Z,78.75
2018-04-15T05:17:56.413Z,78.75
2018-04-15T05:18:56.460Z,84.38
2018-04-15T05:19:56.507Z,84.38
2018-04-15T05:20:56.573Z,84.38
2018-04-15T05:21:56.617Z,84.38
2018-04-15T05:22:56.643Z,90.00
2018-04-15T05:23:56.686Z,90.00
2018-04-15T05:24:56.730Z,90.00
2018-04-15T05:25:56.776Z,90.00
2018-04-15T05:26:56.863Z,95.63
2018-04-15T05:27:56.873Z,95.63
2018-04-15T05:28:56.913Z,95.63
2018-04-15T05:29:56.956Z,101.25
2018-04-15T05:30:57.004Z,106.88
2018-04-15T05:31:57.072Z,112.50
2018-04-15T05:32:57.117Z,112.50
2018-04-15T05:33:57.141Z,112.50
2018-04-15T05:34:57.184Z,112.50
2018-04-15T05:35:57.235Z,118.13
2018-04-15T05:36:57.274Z,118.13
2018-04-15T05:37:57.362Z,118.13
2018-04-15T05:38:57.370Z,123.75
2018-04-15T05:39:57.419Z,123.75
2018-04-15T05:40:57.456Z,123.75
2018-04-15T05:41:57.511Z,129.38
2018-04-15T05:42:57.591Z,129.38
2018-04-15T05:43:57.599Z,135.00
2018-04-15T05:44:57.640Z,135.00
2018-04-15T05:45:57.685Z,140.63
2018-04-15T05:46:57.732Z,140.63
2018-04-15T05:47:57.803Z,146.25
2018-04-15T05:48:57.848Z,146.25
2018-04-15T05:49:57.872Z,151.88
2018-04-15T05:50:57.915Z,151.88
2018-04-15T05:51:57.961Z,157.50
2018-04-15T05:52:58.009Z,163.13
2018-04-15T05:53:58.077Z,157.50
2018-04-15T05:54:58.110Z,157.50
2018-04-15T05:55:58.144Z,157.50
2018-04-15T05:56:58.189Z,157.50
2018-04-15T05:57:58.239Z,157.50
2018-04-15T05:58:58.313Z,157.50
2018-04-15T05:59:58.329Z,157.50
2018-04-15T06:00:58.376Z,157.50
2018-04-15T06:01:58.420Z,163.13
2018-04-15T06:02:58.470Z,163.13
2018-04-15T06:03:58.547Z,163.13
2018-04-15T06:04:58.563Z,163.13
2018-04-15T06:05:58.626Z,168.75
2018-04-15T06:06:58.652Z,163.13
2018-04-15T06:07:58.702Z,163.13
2018-04-15T06:08:58.784Z,163.13
2018-04-15T06:09:58.791Z,157.50
2018-04-15T06:10:58.836Z,157.50
2018-04-15T06:11:58.884Z,157.50
2018-04-15T06:12:58.930Z,157.50
2018-04-15T06:13:59.016Z,157.50
2018-04-15T06:14:59.089Z,157.50
2018-04-15T06:15:59.071Z,157.50
2018-04-15T06:16:59.116Z,163.13
2018-04-15T06:17:59.165Z,163.13
2018-04-15T06:18:59.240Z,168.75
2018-04-15T06:19:59.259Z,168.75
2018-04-15T06:20:59.317Z,168.75
2018-04-15T06:21:59.354Z,168.75
2018-04-15T06:22:59.397Z,168.75
2018-04-15T06:23:59.466Z,168.75
2018-04-15T06:24:59.489Z,168.75
2018-04-15T06:25:59.534Z,168.75
2018-04-15T06:26:59.605Z,174.38
2018-04-15T06:27:59.631Z,174.38
2018-04-15T06:28:59.677Z,174.38
2018-04-15T06:29:59.722Z,174.38
2018-04-15T06:30:59.769Z,174.38
2018-04-15T06:31:59.855Z,174.38
2018-04-15T06:32:59.897Z,174.38
2018-04-15T06:33:59.909Z,174.38
2018-04-15T06:34:59.956Z,174.38
2018-04-15T06:36:00.010Z,174.38
2018-04-15T06:37:00.094Z,180.00
2018-04-15T06:38:00.095Z,180.00
2018-04-15T06:39:00.143Z,180.00
2018-04-15T06:40:00.190Z,180.00
2018-04-15T06:41:00.236Z,180.00
2018-04-15T06:42:00.309Z,180.00
2018-04-15T06:43:00.329Z,180.00
2018-04-15T06:44:00.377Z,185.63
2018-04-15T06:45:00.424Z,185.63
2018-04-15T06:46:00.472Z,185.63
2018-04-15T06:47:00.539Z,185.63
2018-04-15T06:48:00.590Z,185.63
2018-04-15T06:49:00.611Z,191.25
2018-04-15T06:50:00.657Z,191.25
2018-04-15T06:51:00.706Z,196.88
2018-04-15T06:52:00.779Z,202.50
2018-04-15T06:53:00.822Z,202.50
2018-04-15T06:54:00.845Z,208.13
2018-04-15T06:55:00.892Z,213.75
2018-04-15T06:56:00.941Z,213.75
2018-04-15T06:57:01.022Z,219.38
2018-04-15T06:58:01.035Z,219.38
2018-04-15T06:59:01.084Z,225.00
2018-04-15T07:00:01.129Z,225.00
2018-04-15T07:01:01.176Z,225.00
2018-04-15T07:02:01.255Z,225.00
2018-04-15T07:03:01.272Z,230.63
2018-04-15T07:04:01.322Z,230.63
2018-04-15T07:05:01.363Z,236.25
2018-04-15T07:06:01.414Z,236.25
2018-04-15T07:07:01.494Z,241.88
2018-04-15T07:08:01.511Z,247.50
2018-04-15T07:09:01.556Z,253.13
2018-04-15T07:10:01.606Z,253.13
2018-04-15T07:11:01.648Z,258.75
2018-04-15T07:12:01.722Z,264.38
2018-04-15T07:13:01.746Z,264.38
2018-04-15T07:14:01.846Z,264.38
2018-04-15T07:15:01.840Z,258.75
2018-04-15T07:16:01.891Z,258.75
2018-04-15T07:17:01.941Z,264.38
2018-04-15T07:18:02.007Z,258.75
2018-04-15T07:19:02.032Z,258.75
2018-04-15T07:20:02.079Z,253.13
2018-04-15T07:21:02.126Z,253.13
2018-04-15T07:22:02.173Z,247.50
2018-04-15T07:23:02.247Z,247.50
2018-04-15T07:24:02.270Z,247.50
2018-04-15T07:25:02.321Z,247.50
2018-04-15T07:26:02.365Z,253.13
2018-04-15T07:27:02.415Z,253.13
2018-04-15T07:28:02.485Z,258.75
2018-04-15T07:29:02.507Z,264.38
2018-04-15T07:30:03.099Z,264.38
2018-04-15T07:31:02.603Z,264.38
2018-04-15T07:32:02.653Z,264.38
2018-04-15T07:33:02.700Z,264.38
2018-04-15T07:34:02.748Z,264.38
2018-04-15T07:35:02.834Z,264.38
2018-04-15T07:36:02.841Z,270.00
2018-04-15T07:37:02.890Z,270.00
2018-04-15T07:38:02.939Z,275.63
2018-04-15T07:39:02.983Z,275.63
2018-04-15T07:40:03.085Z,281.25
2018-04-15T07:41:03.080Z,281.25
2018-04-15T07:42:03.128Z,286.88
2018-04-15T07:43:03.179Z,292.50
2018-04-15T07:44:03.225Z,298.13
2018-04-15T07:45:03.294Z,303.75
2018-04-15T07:46:03.344Z,309.38
2018-04-15T07:47:03.369Z,315.00
2018-04-15T07:48:03.418Z,331.88
2018-04-15T07:49:03.467Z,326.25
2018-04-15T07:50:03.508Z,331.88
2018-04-15T07:51:03.582Z,348.75
2018-04-15T07:52:03.607Z,360.00
2018-04-15T07:53:03.655Z,388.13
2018-04-15T07:54:03.703Z,455.63
2018-04-15T07:55:03.751Z,495.00
2018-04-15T07:56:03.826Z,427.50
2018-04-15T07:57:03.849Z,410.63
2018-04-15T07:58:03.894Z,416.25
2018-04-15T07:59:03.948Z,427.50
2018-04-15T08:00:03.990Z,450.00
2018-04-15T08:01:05.103Z,495.00
2018-04-15T08:02:04.089Z,534.38
2018-04-15T08:03:04.136Z,511.88
2018-04-15T08:04:04.192Z,618.75
2018-04-15T08:05:05.103Z,579.38
2018-04-15T08:06:04.343Z,568.13
2018-04-15T08:07:04.329Z,540.00
2018-04-15T08:08:04.387Z,556.88
2018-04-15T08:09:04.428Z,596.25
2018-04-15T08:10:04.479Z,596.25
2018-04-15T08:11:04.565Z,613.13
2018-04-15T08:12:04.572Z,607.50
2018-04-15T08:13:04.619Z,573.75
2018-04-15T08:14:04.668Z,573.75
2018-04-15T08:15:04.719Z,590.63
2018-04-15T08:16:04.789Z,562.50
2018-04-15T08:17:05.663Z,562.50
2018-04-15T08:18:04.864Z,556.88
2018-04-15T08:19:04.915Z,568.13
2018-04-15T08:20:04.961Z,556.88
2018-04-15T08:21:05.041Z,568.13
2018-04-15T08:22:05.059Z,562.50
2018-04-15T08:23:05.133Z,551.25
2018-04-15T08:24:05.159Z,545.63
2018-04-15T08:25:05.207Z,573.75
2018-04-15T08:26:05.254Z,562.50
2018-04-15T08:27:05.328Z,573.75
2018-04-15T08:28:05.352Z,601.88
2018-04-15T08:29:05.403Z,652.50
2018-04-15T08:30:05.456Z,714.38
2018-04-15T08:31:05.509Z,601.88
2018-04-15T08:32:05.575Z,590.63
2018-04-15T08:33:05.598Z,607.50
2018-04-15T08:34:06.605Z,641.25
2018-04-15T08:35:06.109Z,635.63
2018-04-15T08:36:05.746Z,765.00
2018-04-15T08:37:05.818Z,961.88
2018-04-15T08:38:05.890Z,905.63
2018-04-15T08:39:05.894Z,922.50
2018-04-15T08:40:05.948Z,871.88
2018-04-15T08:41:05.994Z,832.50
2018-04-15T08:42:06.049Z,871.88
2018-04-15T08:43:06.119Z,922.50
2018-04-15T08:44:06.141Z,781.88
2018-04-15T08:45:06.191Z,736.88
2018-04-15T08:46:06.241Z,686.25
2018-04-15T08:47:06.293Z,675.00
2018-04-15T08:48:06.365Z,669.38
2018-04-15T08:49:06.394Z,686.25
2018-04-15T08:50:06.441Z,714.38
2018-04-15T08:51:06.491Z,708.75
2018-04-15T08:52:06.540Z,703.13
2018-04-15T08:53:06.615Z,714.38
2018-04-15T08:54:06.647Z,759.38
2018-04-15T08:55:06.689Z,731.25
2018-04-15T08:56:06.744Z,742.50
2018-04-15T08:57:06.792Z,770.63
2018-04-15T08:58:06.876Z,815.63
2018-04-15T08:59:08.610Z,793.13
2018-04-15T09:00:06.942Z,781.88
2018-04-15T09:01:06.991Z,793.13
2018-04-15T09:02:07.045Z,798.75
2018-04-15T09:03:07.114Z,956.25
2018-04-15T09:04:07.142Z,883.13
2018-04-15T09:05:07.190Z,821.25
2018-04-15T09:06:07.243Z,815.63
2018-04-15T09:07:07.340Z,821.25
2018-04-15T09:08:07.340Z,781.88
2018-04-15T09:09:07.405Z,798.75
2018-04-15T09:10:07.445Z,798.75
2018-04-15T09:11:07.493Z,810.00
2018-04-15T09:12:07.570Z,804.38
2018-04-15T09:13:07.596Z,821.25
2018-04-15T09:14:07.672Z,855.00
2018-04-15T09:15:07.696Z,843.75
2018-04-15T09:16:07.741Z,849.38
2018-04-15T09:17:07.792Z,843.75
2018-04-15T09:18:07.853Z,843.75
2018-04-15T09:19:07.914Z,860.63
2018-04-15T09:20:07.944Z,894.38
2018-04-15T09:21:07.992Z,916.88
2018-04-15T09:22:08.045Z,939.38
2018-04-15T09:23:08.616Z,973.13
2018-04-15T09:24:08.168Z,1029.38
2018-04-15T09:25:08.196Z,1085.63
2018-04-15T09:26:08.265Z,1130.63
2018-04-15T09:27:08.291Z,1243.13
2018-04-15T09:28:08.340Z,1338.75
2018-04-15T09:29:08.417Z,1378.13
2018-04-15T09:30:08.453Z,1451.25
2018-04-15T09:31:08.518Z,1440.00
2018-04-15T09:32:08.550Z,1355.63
2018-04-15T09:33:08.592Z,1355.63
2018-04-15T09:34:08.641Z,1395.00
2018-04-15T09:35:08.692Z,1366.88
2018-04-15T09:36:08.789Z,1350.00
2018-04-15T09:37:08.790Z,1271.25
2018-04-15T09:38:08.844Z,1265.63
2018-04-15T09:39:08.893Z,1243.13
2018-04-15T09:40:08.943Z,1361.25
2018-04-15T09:41:09.024Z,1361.25
2018-04-15T09:42:09.042Z,1265.63
2018-04-15T09:43:09.098Z,1040.63
2018-04-15T09:44:09.143Z,950.63
2018-04-15T09:45:09.191Z,900.00
2018-04-15T09:46:09.270Z,855.00
2018-04-15T09:47:09.317Z,815.63
2018-04-15T09:48:09.344Z,798.75
2018-04-15T09:49:09.390Z,781.88
2018-04-15T09:50:09.444Z,776.25
2018-04-15T09:51:09.491Z,753.75
2018-04-15T09:52:09.576Z,736.88
2018-04-15T09:53:09.591Z,725.63
2018-04-15T09:54:09.640Z,697.50
2018-04-15T09:55:09.692Z,663.75
2018-04-15T09:56:09.741Z,635.63
2018-04-15T09:57:09.828Z,601.88
2018-04-15T09:58:09.847Z,568.13
2018-04-15T09:59:09.913Z,545.63
2018-04-15T10:00:09.938Z,523.13
2018-04-15T10:01:09.988Z,511.88
2018-04-15T10:02:10.078Z,506.25
2018-04-15T10:03:10.088Z,500.63
2018-04-15T10:04:10.139Z,500.63
2018-04-15T10:05:10.185Z,506.25
2018-04-15T10:06:10.235Z,517.50
2018-04-15T10:07:10.319Z,534.38
2018-04-15T10:08:10.336Z,568.13
2018-04-15T10:09:10.385Z,635.63
2018-04-15T10:10:10.432Z,720.00
2018-04-15T10:11:10.482Z,855.00
2018-04-15T10:12:10.556Z,984.38
2018-04-15T10:13:10.633Z,1046.25
2018-04-15T10:14:10.629Z,1001.25
2018-04-15T10:15:10.680Z,1006.88
2018-04-15T10:16:10.728Z,1203.75
2018-04-15T10:17:10.780Z,1597.50
2018-04-15T10:18:10.873Z,1816.88
2018-04-15T10:19:10.880Z,1771.88
2018-04-15T10:20:10.930Z,1923.75
2018-04-15T10:21:10.977Z,1462.50
2018-04-15T10:22:11.028Z,1462.50
2018-04-15T10:23:11.099Z,1299.38
2018-04-15T10:24:11.180Z,1378.13
2018-04-15T10:25:11.177Z,1693.13
2018-04-15T10:26:11.227Z,1766.25
2018-04-15T10:27:11.278Z,1434.38
2018-04-15T10:28:11.336Z,1980.00
2018-04-15T10:29:11.433Z,2036.25
2018-04-15T10:30:11.430Z,1963.13
2018-04-15T10:31:11.477Z,1726.88
2018-04-15T10:32:11.530Z,1350.00
2018-04-15T10:33:11.582Z,1417.50
2018-04-15T10:34:11.652Z,1411.88
2018-04-15T10:35:11.681Z,1440.00
2018-04-15T10:36:11.739Z,1575.00
2018-04-15T10:37:11.779Z,1372.50
2018-04-15T10:38:11.839Z,1243.13
2018-04-15T10:39:11.919Z,1175.63
2018-04-15T10:40:11.983Z,1102.50
2018-04-15T10:41:11.987Z,1108.13
2018-04-15T10:42:12.035Z,1231.88
2018-04-15T10:43:12.087Z,1389.38
2018-04-15T10:44:12.144Z,1198.13
2018-04-15T10:45:12.228Z,1220.63
2018-04-15T10:46:12.241Z,1276.88
2018-04-15T10:47:12.292Z,1175.63
2018-04-15T10:48:12.343Z,1282.50
2018-04-15T10:49:12.393Z,1220.63
2018-04-15T10:50:12.480Z,1181.25
2018-04-15T10:51:12.497Z,1282.50
2018-04-15T10:52:12.548Z,1321.88
2018-04-15T10:53:12.599Z,1147.50
2018-04-15T10:54:12.653Z,1113.75
2018-04-15T10:55:12.729Z,1012.50
2018-04-15T10:56:12.768Z,1164.38
2018-04-15T10:57:12.798Z,1023.75
2018-04-15T10:58:12.856Z,1074.38
2018-04-15T10:59:12.906Z,1035.00
2018-04-15T11:00:13.010Z,883.13
2018-04-15T11:01:13.005Z,793.13
2018-04-15T11:02:13.063Z,725.63
2018-04-15T11:03:13.106Z,697.50
2018-04-15T11:04:13.155Z,669.38
2018-04-15T11:05:13.251Z,646.88
2018-04-15T11:06:13.264Z,641.25
2018-04-15T11:07:13.314Z,652.50
2018-04-15T11:08:13.360Z,680.63
2018-04-15T11:09:13.409Z,731.25
2018-04-15T11:10:13.485Z,765.00
2018-04-15T11:11:13.533Z,781.88
2018-04-15T11:12:13.560Z,804.38
2018-04-15T11:13:13.613Z,815.63
2018-04-15T11:14:13.671Z,849.38
2018-04-15T11:15:13.721Z,911.25
2018-04-15T11:16:13.786Z,1040.63
2018-04-15T11:17:13.815Z,1248.75
2018-04-15T11:18:13.870Z,1288.13
2018-04-15T11:19:13.913Z,1147.50
2018-04-15T11:20:13.964Z,1051.88
2018-04-15T11:21:14.048Z,1096.88
2018-04-15T11:22:14.067Z,1186.88
2018-04-15T11:23:14.118Z,1248.75
2018-04-15T11:24:14.168Z,1642.50
2018-04-15T11:25:14.221Z,1507.50
2018-04-15T11:26:14.295Z,2030.63
2018-04-15T11:27:14.347Z,2205.00
2018-04-15T11:28:14.371Z,2002.50
2018-04-15T11:29:14.480Z,1873.13
2018-04-15T11:30:14.475Z,2053.13
2018-04-15T11:31:14.531Z,1440.00
2018-04-15T11:32:14.602Z,1344.38
2018-04-15T11:33:14.631Z,1186.88
2018-04-15T11:34:14.683Z,1153.13
2018-04-15T11:35:14.731Z,1108.13
2018-04-15T11:36:14.784Z,1108.13
2018-04-15T11:37:14.859Z,1018.13
2018-04-15T11:38:14.886Z,1012.50
2018-04-15T11:39:14.940Z,1006.88
2018-04-15T11:40:14.992Z,1018.13
2018-04-15T11:41:15.046Z,1001.25
2018-04-15T11:42:15.139Z,1029.38
2018-04-15T11:43:15.149Z,1175.63
2018-04-15T11:44:15.197Z,1963.13
2018-04-15T11:45:15.300Z,1884.38
2018-04-15T11:46:15.299Z,2086.88
2018-04-15T11:47:15.381Z,1935.00
2018-04-15T11:48:15.404Z,1434.38
2018-04-15T11:49:15.454Z,1395.00
2018-04-15T11:50:15.504Z,1226.25
2018-04-15T11:51:15.563Z,1243.13
2018-04-15T11:52:15.696Z,1383.75
2018-04-15T11:53:15.659Z,1428.75
2018-04-15T11:54:15.708Z,1248.75
2018-04-15T11:55:15.765Z,1338.75
2018-04-15T11:56:15.814Z,1395.00
2018-04-15T11:57:16.655Z,2064.38
2018-04-15T11:58:15.915Z,2289.38
2018-04-15T11:59:15.966Z,2120.63
2018-04-15T12:00:16.020Z,1884.38
2018-04-15T12:01:16.065Z,2356.88
2018-04-15T12:02:16.180Z,1935.00
2018-04-15T12:03:16.173Z,1563.75
2018-04-15T12:04:16.272Z,1591.88
2018-04-15T12:05:16.272Z,1974.38
2018-04-15T12:06:16.329Z,1164.38
2018-04-15T12:07:16.375Z,1237.50
2018-04-15T12:08:16.429Z,1018.13
2018-04-15T12:09:16.536Z,928.13
2018-04-15T12:10:16.536Z,1006.88
2018-04-15T12:11:16.580Z,1125.00
2018-04-15T12:12:16.634Z,1378.13
2018-04-15T12:13:16.682Z,1710.00
2018-04-15T12:14:16.788Z,1282.50
2018-04-15T12:15:16.787Z,1681.88
2018-04-15T12:16:16.839Z,2593.13
2018-04-15T12:17:16.902Z,1670.63
2018-04-15T12:18:16.942Z,1620.00
2018-04-15T12:19:17.049Z,2407.50
2018-04-15T12:20:17.050Z,1220.63
2018-04-15T12:21:17.096Z,1164.38
2018-04-15T12:22:17.151Z,1074.38
2018-04-15T12:23:17.201Z,1192.50
2018-04-15T12:24:17.283Z,945.00
2018-04-15T12:25:17.331Z,860.63
2018-04-15T12:26:17.361Z,815.63
2018-04-15T12:27:19.165Z,798.75
2018-04-15T12:28:17.465Z,770.63
2018-04-15T12:29:17.513Z,759.38
2018-04-15T12:30:17.591Z,759.38
2018-04-15T12:31:17.619Z,753.75
2018-04-15T12:32:17.673Z,776.25
2018-04-15T12:33:17.724Z,765.00
2018-04-15T12:34:17.777Z,765.00
2018-04-15T12:35:17.879Z,787.50
2018-04-15T12:36:17.876Z,804.38
2018-04-15T12:37:17.925Z,832.50
2018-04-15T12:38:17.977Z,860.63
2018-04-15T12:39:18.027Z,905.63
2018-04-15T12:40:18.109Z,945.00
2018-04-15T12:41:18.132Z,995.63
2018-04-15T12:42:18.181Z,1040.63
2018-04-15T12:43:18.974Z,1074.38
2018-04-15T12:44:24.971Z,1096.88